createdAt,value
2019-03-18T00:00:15.319Z,4.30
2019-03-18T00:02:44.952Z,4.43
2019-03-18T00:05:13.421Z,4.70
2019-03-18T00:07:41.830Z,4.10
2019-03-18T00:10:10.345Z,3.67
2019-03-18T00:12:38.763Z,4.07
2019-03-18T00:15:09.282Z,3.93
2019-03-18T00:17:37.727Z,3.93
2019-03-18T00:20:08.425Z,4.57
2019-03-18T00:22:36.865Z,3.67
2019-03-18T00:25:07.325Z,4.40
2019-03-18T00:27:35.769Z,4.50
2019-03-18T00:30:06.198Z,3.73
2019-03-18T00:32:34.609Z,3.70
2019-03-18T00:35:03.322Z,4.17
2019-03-18T00:37:31.766Z,3.83
2019-03-18T00:40:00.359Z,3.80
2019-03-18T00:42:28.840Z,3.60
2019-03-18T00:44:57.233Z,3.60
2019-03-18T00:47:25.674Z,4.00
2019-03-18T00:49:54.091Z,3.52
2019-03-18T00:52:22.581Z,3.43
2019-03-18T00:54:51.030Z,3.40
2019-03-18T00:57:19.681Z,4.27
2019-03-18T00:59:48.113Z,3.63
2019-03-18T01:02:16.541Z,3.70
2019-03-18T01:04:44.993Z,4.23
2019-03-18T01:07:13.401Z,4.23
2019-03-18T01:09:41.825Z,4.27
2019-03-18T01:12:10.241Z,4.13
2019-03-18T01:14:38.697Z,4.43
2019-03-18T01:17:07.137Z,5.07
2019-03-18T01:19:35.553Z,4.10
2019-03-18T01:22:03.973Z,3.80
2019-03-18T01:24:32.418Z,4.17
2019-03-18T01:27:00.824Z,3.73
2019-03-18T01:29:29.342Z,3.87
2019-03-18T01:31:57.791Z,3.97
2019-03-18T01:34:26.305Z,4.43
2019-03-18T01:36:54.742Z,4.30
2019-03-18T01:39:23.397Z,3.97
2019-03-18T01:41:51.830Z,3.70
2019-03-18T01:44:20.234Z,4.07
2019-03-18T01:46:48.662Z,4.63
2019-03-18T01:49:17.089Z,4.90
2019-03-18T01:51:45.506Z,5.17
2019-03-18T01:54:13.949Z,5.80
2019-03-18T01:56:42.381Z,5.00
2019-03-18T01:59:10.789Z,5.12
2019-03-18T02:01:39.229Z,4.03
2019-03-18T02:04:07.642Z,4.03
2019-03-18T02:06:36.077Z,5.07
2019-03-18T02:09:06.344Z,5.00
2019-03-18T02:11:34.770Z,5.37
2019-03-18T02:14:03.190Z,5.47
2019-03-18T02:16:31.692Z,5.73
2019-03-18T02:19:00.093Z,5.00
2019-03-18T02:21:28.533Z,6.20
2019-03-18T02:23:56.976Z,6.37
2019-03-18T02:26:25.406Z,7.83
2019-03-18T02:28:53.821Z,6.73
2019-03-18T02:31:22.254Z,8.47
2019-03-18T02:33:50.759Z,8.67
2019-03-18T02:36:19.167Z,9.70
2019-03-18T02:38:47.616Z,9.17
2019-03-18T02:41:16.026Z,8.60
2019-03-18T02:43:44.450Z,8.53
2019-03-18T02:46:12.859Z,8.40
2019-03-18T02:48:41.300Z,9.07
2019-03-18T02:51:09.716Z,8.80
2019-03-18T02:53:38.142Z,8.77
2019-03-18T02:56:06.832Z,7.77
2019-03-18T02:58:35.253Z,7.83
2019-03-18T03:01:03.687Z,8.50
2019-03-18T03:03:32.113Z,7.85
2019-03-18T03:06:00.517Z,7.00
2019-03-18T03:08:28.962Z,6.97
2019-03-18T03:10:57.373Z,5.70
2019-03-18T03:13:25.809Z,6.17
2019-03-18T03:15:54.306Z,7.03
2019-03-18T03:18:22.745Z,5.97
2019-03-18T03:20:51.181Z,5.58
2019-03-18T03:23:19.599Z,5.53
2019-03-18T03:25:48.044Z,5.17
2019-03-18T03:28:16.467Z,4.30
2019-03-18T03:30:44.902Z,4.05
2019-03-18T03:33:13.363Z,3.93
2019-03-18T03:35:41.807Z,3.90
2019-03-18T03:38:10.268Z,3.90
2019-03-18T03:40:38.696Z,3.67
2019-03-18T03:43:07.192Z,3.57
2019-03-18T03:45:35.716Z,3.53
2019-03-18T03:48:04.163Z,3.23
2019-03-18T03:50:32.576Z,3.50
2019-03-18T03:53:01.120Z,3.93
2019-03-18T03:55:29.938Z,3.50
2019-03-18T03:57:58.626Z,4.00
2019-03-18T04:00:27.063Z,3.87
2019-03-18T04:02:55.512Z,4.95
2019-03-18T04:05:24.006Z,3.93
2019-03-18T04:07:52.517Z,3.90
2019-03-18T04:10:20.958Z,4.33
2019-03-18T04:12:49.414Z,4.10
2019-03-18T04:15:18.030Z,3.77
2019-03-18T04:17:46.558Z,4.30
2019-03-18T04:20:17.914Z,3.80
2019-03-18T04:22:46.369Z,3.30
2019-03-18T04:25:14.895Z,4.77
2019-03-18T04:27:43.469Z,4.53
2019-03-18T04:30:13.273Z,4.20
2019-03-18T04:32:41.769Z,3.90
2019-03-18T04:35:10.188Z,3.73
2019-03-18T04:37:38.640Z,3.65
2019-03-18T04:40:08.788Z,4.93
2019-03-18T04:42:37.474Z,3.80
2019-03-18T04:45:08.164Z,4.20
2019-03-18T04:47:36.607Z,4.40
2019-03-18T04:50:06.702Z,3.30
2019-03-18T04:52:35.119Z,3.53
2019-03-18T04:55:04.509Z,3.90
2019-03-18T04:57:32.927Z,3.63
2019-03-18T05:00:01.386Z,4.10
2019-03-18T05:02:29.805Z,3.83
2019-03-18T05:04:58.398Z,4.10
2019-03-18T05:07:26.840Z,4.03
2019-03-18T05:09:55.312Z,4.77
2019-03-18T05:12:23.748Z,4.50
2019-03-18T05:14:52.166Z,4.43
2019-03-18T05:17:26.669Z,4.43
2019-03-18T05:19:50.772Z,3.53
2019-03-18T05:22:19.231Z,4.73
2019-03-18T05:24:47.674Z,4.13
2019-03-18T05:27:16.106Z,3.40
2019-03-18T05:29:44.544Z,4.10
2019-03-18T05:32:13.254Z,3.67
2019-03-18T05:34:42.643Z,4.47
2019-03-18T05:37:11.169Z,4.00
2019-03-18T05:39:39.587Z,3.37
2019-03-18T05:42:08.004Z,4.73
2019-03-18T05:44:36.448Z,4.03
2019-03-18T05:47:04.866Z,4.40
2019-03-18T05:49:33.307Z,4.17
2019-03-18T05:52:01.733Z,5.30
2019-03-18T05:54:30.185Z,5.10
2019-03-18T05:56:58.637Z,5.63
2019-03-18T05:59:27.047Z,4.93
2019-03-18T06:01:55.500Z,5.57
2019-03-18T06:04:23.916Z,4.67
2019-03-18T06:06:52.361Z,6.13
2019-03-18T06:09:20.827Z,5.00
2019-03-18T06:11:49.246Z,5.87
2019-03-18T06:14:17.682Z,5.93
2019-03-18T06:16:46.124Z,6.17
2019-03-18T06:19:14.541Z,5.23
2019-03-18T06:21:42.989Z,5.37
2019-03-18T06:24:11.544Z,5.78
2019-03-18T06:26:39.963Z,4.70
2019-03-18T06:29:08.391Z,5.43
2019-03-18T06:31:37.200Z,5.57
2019-03-18T06:34:05.636Z,6.03
2019-03-18T06:36:34.099Z,5.80
2019-03-18T06:39:02.646Z,5.77
2019-03-18T06:41:31.068Z,6.23
2019-03-18T06:43:59.508Z,5.23
2019-03-18T06:46:27.923Z,6.58
2019-03-18T06:48:57.343Z,5.63
2019-03-18T06:51:25.755Z,5.57
2019-03-18T06:53:54.308Z,6.77
2019-03-18T06:56:22.793Z,5.43
2019-03-18T06:58:51.240Z,5.20
2019-03-18T07:01:19.680Z,6.00
2019-03-18T07:03:48.119Z,6.13
2019-03-18T07:06:16.557Z,5.30
2019-03-18T07:08:45.003Z,6.13
2019-03-18T07:11:13.445Z,5.17
2019-03-18T07:13:42.023Z,5.67
2019-03-18T07:16:10.473Z,6.40
2019-03-18T07:18:38.904Z,5.83
2019-03-18T07:21:07.338Z,6.53
2019-03-18T07:23:35.796Z,6.53
2019-03-18T07:26:04.380Z,6.23
2019-03-18T07:28:32.819Z,6.03
2019-03-18T07:31:01.260Z,6.35
2019-03-18T07:33:29.739Z,6.13
2019-03-18T07:35:58.179Z,7.07
2019-03-18T07:38:26.619Z,6.33
2019-03-18T07:40:55.159Z,6.40
2019-03-18T07:43:23.579Z,6.23
2019-03-18T07:45:52.010Z,5.40
2019-03-18T07:48:30.215Z,6.47
2019-03-18T07:50:50.584Z,5.77
2019-03-18T07:53:19.024Z,6.37
2019-03-18T07:55:47.440Z,6.80
2019-03-18T07:58:15.871Z,6.23
2019-03-18T08:00:44.505Z,5.33
2019-03-18T08:03:13.268Z,6.10
2019-03-18T08:05:41.679Z,5.30
2019-03-18T08:08:10.362Z,6.73
2019-03-18T08:10:38.805Z,5.37
2019-03-18T08:13:07.228Z,5.57
2019-03-18T08:15:35.663Z,5.83
2019-03-18T08:18:04.197Z,5.67
2019-03-18T08:20:32.608Z,5.23
2019-03-18T08:23:01.021Z,5.17
2019-03-18T08:25:29.459Z,5.17
2019-03-18T08:27:57.876Z,6.60
2019-03-18T08:30:26.320Z,5.60
2019-03-18T08:32:54.730Z,7.03
2019-03-18T08:35:23.180Z,6.63
2019-03-18T08:37:51.595Z,5.37
2019-03-18T08:40:20.093Z,6.07
2019-03-18T08:42:48.503Z,5.77
2019-03-18T08:45:16.988Z,6.10
2019-03-18T08:47:45.444Z,5.67
2019-03-18T08:50:13.996Z,5.77
2019-03-18T08:52:42.421Z,5.90
2019-03-18T08:55:11.584Z,6.35
2019-03-18T08:57:40.383Z,6.10
2019-03-18T09:00:15.889Z,5.93
2019-03-18T09:02:44.362Z,5.97
2019-03-18T09:05:13.125Z,5.17
2019-03-18T09:07:41.552Z,5.77
2019-03-18T09:10:14.202Z,5.92
2019-03-18T09:12:42.814Z,5.37
2019-03-18T09:15:12.005Z,5.37
2019-03-18T09:17:40.734Z,5.53
2019-03-18T09:20:16.264Z,4.67
2019-03-18T09:22:44.781Z,4.47
2019-03-18T09:25:13.758Z,3.80
2019-03-18T09:27:42.173Z,4.63
2019-03-18T09:30:16.832Z,5.90
2019-03-18T09:32:45.248Z,5.08
2019-03-18T09:35:13.769Z,4.00
2019-03-18T09:37:42.291Z,4.03
2019-03-18T09:40:12.451Z,5.10
2019-03-18T09:42:40.959Z,5.30
2019-03-18T09:45:14.072Z,4.40
2019-03-18T09:47:42.507Z,5.00
2019-03-18T09:50:11.955Z,4.67
2019-03-18T09:52:40.395Z,3.90
2019-03-18T09:55:09.652Z,4.93
2019-03-18T09:57:38.091Z,4.43
2019-03-18T10:00:12.532Z,4.73
2019-03-18T10:02:41.055Z,4.53
2019-03-18T10:05:09.540Z,3.87
2019-03-18T10:07:38.020Z,3.57
2019-03-18T10:10:09.459Z,3.90
2019-03-18T10:12:37.911Z,3.98
2019-03-18T10:15:11.803Z,4.37
2019-03-18T10:17:40.248Z,5.33
2019-03-18T10:20:09.404Z,5.03
2019-03-18T10:22:37.843Z,4.90
2019-03-18T10:25:07.695Z,5.50
2019-03-18T10:27:37.655Z,5.87
2019-03-18T10:30:12.002Z,5.70
2019-03-18T10:32:40.464Z,6.30
2019-03-18T10:35:09.568Z,5.90
2019-03-18T10:37:38.335Z,5.43
2019-03-18T10:40:11.899Z,5.70
2019-03-18T10:42:40.315Z,5.17
2019-03-18T10:45:15.066Z,5.40
2019-03-18T10:47:43.496Z,4.00
2019-03-18T10:50:16.641Z,5.03
2019-03-18T10:52:45.328Z,4.00
2019-03-18T10:55:13.867Z,3.53
2019-03-18T10:57:42.338Z,3.97
2019-03-18T11:00:16.163Z,2.27
2019-03-18T11:02:45.319Z,2.40
2019-03-18T11:05:14.600Z,3.43
2019-03-18T11:07:43.044Z,3.03
2019-03-18T11:10:12.871Z,3.47
2019-03-18T11:12:41.350Z,3.13
2019-03-18T11:15:14.639Z,3.97
2019-03-18T11:17:43.152Z,4.73
2019-03-18T11:20:13.335Z,5.35
2019-03-18T11:22:41.784Z,5.23
2019-03-18T11:25:13.060Z,5.83
2019-03-18T11:27:41.524Z,5.63
2019-03-18T11:30:18.233Z,6.13
2019-03-18T11:32:46.689Z,4.35
2019-03-18T11:35:15.103Z,2.63
2019-03-18T11:37:46.195Z,2.57
2019-03-18T11:40:16.743Z,2.53
2019-03-18T11:42:45.310Z,3.20
2019-03-18T11:45:15.266Z,3.20
2019-03-18T11:47:44.652Z,3.57
2019-03-18T11:50:15.599Z,4.30
2019-03-18T11:52:44.188Z,3.50
2019-03-18T11:55:18.475Z,3.67
2019-03-18T11:57:46.886Z,3.17
2019-03-18T12:00:23.538Z,3.50
2019-03-18T12:02:52.032Z,3.40
2019-03-18T12:05:25.447Z,4.20
2019-03-18T12:07:54.035Z,3.70
2019-03-18T12:10:25.274Z,4.23
2019-03-18T12:12:52.800Z,4.63
2019-03-18T12:15:27.696Z,4.37
2019-03-18T12:17:56.237Z,5.17
2019-03-18T12:20:26.029Z,4.95
2019-03-18T12:22:54.654Z,5.30
2019-03-18T12:25:23.155Z,5.93
2019-03-18T12:27:51.598Z,6.00
2019-03-18T12:30:21.945Z,5.37
2019-03-18T12:32:50.536Z,4.40
2019-03-18T12:35:19.153Z,4.33
2019-03-18T12:37:47.682Z,3.98
2019-03-18T12:40:17.051Z,4.67
2019-03-18T12:42:46.536Z,4.67
2019-03-18T12:45:15.815Z,4.28
2019-03-18T12:47:44.300Z,5.10
2019-03-18T12:50:36.292Z,4.97
2019-03-18T12:52:50.555Z,4.70
2019-03-18T12:55:19.231Z,5.10
2019-03-18T12:57:47.664Z,5.20
2019-03-18T13:00:21.439Z,4.93
2019-03-18T13:02:50.050Z,5.90
2019-03-18T13:05:18.620Z,5.30
2019-03-18T13:07:47.203Z,5.30
2019-03-18T13:10:21.192Z,4.93
2019-03-18T13:12:48.608Z,3.13
2019-03-18T13:15:17.869Z,2.58
2019-03-18T13:17:46.443Z,2.83
2019-03-18T13:20:15.826Z,3.10
2019-03-18T13:22:44.257Z,2.50
2019-03-18T13:25:13.343Z,3.40
2019-03-18T13:27:41.851Z,2.90
2019-03-18T13:30:15.771Z,4.03
2019-03-18T13:32:44.410Z,3.50
2019-03-18T13:35:13.127Z,4.45
2019-03-18T13:37:41.559Z,3.93
2019-03-18T13:40:13.143Z,3.93
2019-03-18T13:42:41.632Z,3.80
2019-03-18T13:45:17.956Z,4.60
2019-03-18T13:47:46.499Z,4.87
2019-03-18T13:50:19.451Z,4.00
2019-03-18T13:52:47.891Z,3.20
2019-03-18T13:55:16.416Z,3.20
2019-03-18T13:57:44.950Z,3.53
2019-03-18T14:00:15.669Z,3.33
2019-03-18T14:02:44.420Z,3.53
2019-03-18T14:05:34.012Z,3.47
2019-03-18T14:08:14.304Z,4.13
2019-03-18T14:10:54.982Z,4.70
2019-03-18T14:13:35.712Z,3.90
2019-03-18T14:16:16.376Z,3.57
2019-03-18T14:18:57.239Z,3.80
2019-03-18T14:21:38.350Z,4.20
2019-03-18T14:24:19.335Z,3.30
2019-03-18T14:26:59.779Z,3.83
2019-03-18T14:29:40.301Z,4.67
2019-03-18T14:32:21.090Z,4.53
2019-03-18T14:35:01.861Z,5.13
2019-03-18T14:37:42.836Z,5.50
2019-03-18T14:40:23.625Z,4.57
2019-03-18T14:43:04.131Z,5.43
2019-03-18T14:45:45.132Z,5.40
2019-03-18T14:48:25.963Z,5.97
2019-03-18T14:51:06.608Z,4.90
2019-03-18T14:53:47.346Z,4.20
2019-03-18T14:56:27.770Z,3.70
2019-03-18T15:01:57.831Z,1.63
2019-03-18T15:04:38.439Z,2.40
2019-03-18T15:07:19.454Z,4.10
2019-03-18T15:09:59.890Z,3.47
2019-03-18T15:12:40.820Z,3.83
2019-03-18T15:15:21.691Z,4.97
2019-03-18T15:18:02.461Z,4.67
2019-03-18T15:20:48.293Z,4.40
2019-03-18T15:23:28.908Z,4.80
2019-03-18T15:26:09.346Z,4.43
2019-03-18T15:28:50.095Z,4.37
2019-03-18T15:31:30.772Z,3.90
2019-03-18T15:34:11.376Z,4.40
2019-03-18T15:36:52.472Z,4.80
2019-03-18T15:39:33.079Z,4.20
2019-03-18T15:48:10.880Z,4.13
2019-03-18T15:50:51.693Z,3.60
2019-03-18T15:53:32.459Z,4.37
2019-03-18T15:56:13.251Z,5.27
2019-03-18T15:58:54.039Z,5.10
2019-03-18T16:01:34.736Z,5.30
2019-03-18T16:04:15.538Z,3.50
2019-03-18T16:06:56.646Z,3.80
2019-03-18T16:09:37.313Z,4.40
2019-03-18T16:12:18.324Z,3.60
2019-03-18T16:14:59.089Z,3.23
2019-03-18T16:17:41.575Z,4.50
2019-03-18T16:20:22.169Z,4.93
2019-03-18T16:23:09.940Z,4.13
2019-03-18T16:25:57.736Z,4.43
2019-03-18T16:28:45.515Z,4.33
2019-03-18T16:31:26.229Z,4.63
2019-03-18T16:34:06.835Z,4.27
2019-03-18T16:36:47.513Z,4.57
2019-03-18T16:39:28.269Z,4.97
2019-03-18T16:42:09.051Z,4.63
2019-03-18T16:44:37.481Z,4.60
2019-03-18T16:47:25.290Z,5.60
2019-03-18T16:50:14.028Z,4.83
2019-03-18T16:53:01.810Z,5.47
2019-03-18T16:55:49.598Z,5.50
2019-03-18T16:58:37.358Z,4.33
2019-03-18T17:01:25.135Z,4.80
2019-03-18T17:04:12.981Z,4.93
2019-03-18T17:07:00.759Z,5.47
2019-03-18T17:09:48.515Z,4.47
2019-03-18T17:12:36.310Z,5.13
2019-03-18T17:15:24.095Z,6.50
2019-03-18T17:17:57.171Z,6.33
2019-03-18T17:26:41.499Z,5.50
2019-03-18T17:32:50.811Z,6.23
2019-03-18T17:35:19.694Z,9.00
2019-03-18T17:37:50.395Z,5.57
2019-03-18T17:40:21.970Z,5.67
2019-03-18T17:42:50.567Z,5.47
2019-03-18T17:58:22.175Z,5.40
2019-03-18T18:00:56.116Z,5.53
2019-03-18T18:03:24.810Z,6.30
2019-03-18T18:05:53.436Z,5.67
2019-03-18T18:08:24.127Z,5.70
2019-03-18T18:10:55.862Z,5.10
2019-03-18T18:13:24.534Z,6.10
2019-03-18T18:15:53.200Z,4.67
2019-03-18T18:18:21.784Z,4.40
2019-03-18T18:20:50.314Z,3.93
2019-03-18T18:23:22.236Z,4.67
2019-03-18T18:25:52.814Z,4.03
2019-03-18T18:28:24.357Z,3.07
2019-03-18T18:37:24.543Z,3.50
2019-03-18T18:39:53.097Z,3.20
2019-03-18T18:45:50.667Z,3.30
2019-03-18T18:48:19.204Z,4.03
2019-03-18T18:50:50.609Z,4.00
2019-03-18T18:53:26.392Z,3.70
2019-03-18T18:55:48.252Z,4.57
2019-03-18T18:58:16.794Z,4.23
2019-03-18T19:00:45.379Z,4.97
2019-03-18T19:06:54.774Z,3.73
2019-03-18T19:09:23.269Z,4.50
2019-03-18T19:11:51.782Z,4.00
2019-03-18T19:17:46.089Z,4.60
2019-03-18T19:20:33.903Z,3.63
2019-03-18T19:23:21.675Z,3.77
2019-03-18T19:26:09.437Z,3.60
2019-03-18T19:28:57.227Z,4.03
2019-03-18T19:31:45.007Z,3.77
2019-03-18T19:34:32.806Z,3.60
2019-03-18T19:37:20.564Z,3.73
2019-03-18T19:46:17.539Z,3.97
2019-03-18T19:51:59.828Z,4.50
2019-03-18T19:54:40.617Z,4.63
2019-03-18T19:57:21.852Z,3.90
2019-03-18T20:00:02.297Z,5.67
2019-03-18T20:02:42.968Z,3.90
2019-03-18T20:05:24.020Z,4.03
2019-03-18T20:08:05.097Z,4.80
2019-03-18T20:10:45.493Z,4.23
2019-03-18T20:13:26.342Z,3.87
2019-03-18T20:16:06.951Z,4.37
2019-03-18T20:18:50.010Z,4.87
2019-03-18T20:21:19.555Z,5.00
2019-03-18T20:23:48.097Z,4.23
2019-03-18T20:26:16.681Z,4.80
2019-03-18T20:28:45.265Z,4.20
2019-03-18T20:34:42.805Z,5.57
2019-03-18T20:37:11.457Z,5.00
2019-03-18T20:39:40.034Z,5.77
2019-03-18T20:45:37.028Z,4.40
2019-03-18T20:48:05.617Z,4.70
2019-03-18T20:50:34.136Z,4.80
2019-03-18T20:53:02.993Z,5.20
2019-03-18T20:55:31.607Z,3.93
2019-03-18T21:01:17.045Z,4.90
2019-03-18T21:07:16.947Z,4.20
2019-03-18T21:13:16.951Z,5.00
2019-03-18T21:15:44.898Z,5.03
2019-03-18T21:18:17.051Z,5.10
2019-03-18T21:20:48.550Z,5.60
2019-03-18T21:23:26.249Z,4.87
2019-03-18T21:35:50.131Z,4.40
2019-03-18T21:47:26.919Z,5.27
2019-03-18T21:49:57.485Z,4.50
2019-03-18T21:56:16.044Z,5.57
2019-03-18T22:11:34.899Z,5.70
2019-03-18T22:17:04.362Z,5.57
2019-03-18T22:19:34.232Z,6.70
2019-03-18T22:22:05.115Z,5.93
2019-03-18T22:30:50.367Z,5.53
2019-03-18T22:36:24.361Z,5.93
2019-03-18T22:41:30.400Z,5.33
2019-03-18T22:47:42.269Z,5.00
2019-03-18T22:50:18.472Z,5.00
2019-03-18T22:55:37.860Z,4.73
2019-03-18T23:01:35.329Z,4.80
2019-03-18T23:04:04.275Z,5.37
2019-03-18T23:06:33.334Z,4.27
2019-03-18T23:09:02.514Z,4.40
2019-03-18T23:11:31.252Z,4.80
2019-03-18T23:13:59.994Z,4.57
2019-03-18T23:19:17.933Z,4.77
2019-03-18T23:21:46.669Z,4.67
2019-03-18T23:24:15.879Z,4.47
2019-03-18T23:26:48.804Z,5.33
2019-03-18T23:35:06.478Z,4.43
2019-03-18T23:37:35.406Z,4.33
2019-03-18T23:42:54.184Z,4.93
2019-03-18T23:45:23.241Z,4.10
2019-03-18T23:47:52.186Z,3.87
2019-03-18T23:50:21.248Z,4.97
2019-03-18T23:52:51.657Z,5.23
2019-03-18T23:55:20.795Z,4.50
2019-03-18T23:57:49.645Z,3.83
